createdAt,value
2022-11-16T00:02:12.991Z,42.15
2022-11-16T00:04:40.090Z,42.13
2022-11-16T00:07:07.269Z,42.48
2022-11-16T00:09:34.391Z,42.33
2022-11-16T00:12:03.294Z,42.24
2022-11-16T00:14:34.292Z,42.05
2022-11-16T00:17:01.448Z,42.31
2022-11-16T00:19:28.738Z,42.30
2022-11-16T00:21:55.666Z,42.04
2022-11-16T00:24:23.424Z,42.08
2022-11-16T00:26:51.131Z,42.04
2022-11-16T00:29:21.735Z,42.21
2022-11-16T00:31:50.963Z,42.18
2022-11-16T00:34:18.565Z,42.26
2022-11-16T00:36:46.255Z,42.05
2022-11-16T00:39:14.138Z,42.38
2022-11-16T00:41:41.194Z,42.40
2022-11-16T00:44:09.210Z,42.37
2022-11-16T00:46:36.100Z,42.08
2022-11-16T00:49:05.649Z,42.07
2022-11-16T00:51:32.872Z,42.50
2022-11-16T00:53:59.939Z,42.02
2022-11-16T00:56:26.848Z,42.37
2022-11-16T00:58:53.721Z,42.11
2022-11-16T01:01:20.665Z,42.11
2022-11-16T01:03:50.359Z,42.08
2022-11-16T01:06:18.827Z,41.99
2022-11-16T01:08:45.667Z,42.32
2022-11-16T01:11:32.942Z,42.37
2022-11-16T01:14:02.200Z,41.87
2022-11-16T01:16:29.311Z,42.11
2022-11-16T01:18:56.447Z,42.22
2022-11-16T01:21:24.896Z,42.27
2022-11-16T01:23:52.310Z,42.19
2022-11-16T01:26:19.281Z,42.11
2022-11-16T01:28:46.145Z,42.16
2022-11-16T01:31:13.976Z,42.38
2022-11-16T01:33:42.064Z,42.35
2022-11-16T01:36:17.298Z,42.28
2022-11-16T01:38:46.513Z,42.38
2022-11-16T01:41:17.468Z,42.40
2022-11-16T01:43:52.152Z,42.04
2022-11-16T01:46:20.324Z,42.05
2022-11-16T01:48:48.808Z,42.06
2022-11-16T01:51:16.403Z,41.97
2022-11-16T01:53:44.923Z,42.19
2022-11-16T01:56:11.892Z,42.22
2022-11-16T01:58:46.365Z,42.32
2022-11-16T02:01:17.981Z,42.30
2022-11-16T02:03:50.217Z,42.34
2022-11-16T02:06:30.754Z,42.01
2022-11-16T02:09:43.956Z,42.26
2022-11-16T02:12:38.039Z,41.99
2022-11-16T02:15:15.936Z,41.98
2022-11-16T02:17:58.398Z,41.98
2022-11-16T02:20:42.545Z,42.21
2022-11-16T02:23:26.787Z,41.94
2022-11-16T02:26:05.780Z,42.07
2022-11-16T02:28:48.174Z,42.20
2022-11-16T02:31:24.406Z,41.77
2022-11-16T02:33:54.132Z,42.00
2022-11-16T02:36:24.868Z,41.95
2022-11-16T02:38:58.071Z,42.22
2022-11-16T02:41:28.611Z,41.79
2022-11-16T02:44:00.442Z,42.11
2022-11-16T02:46:31.107Z,41.86
2022-11-16T02:49:02.443Z,42.08
2022-11-16T02:51:29.679Z,41.93
2022-11-16T02:54:02.784Z,42.18
2022-11-16T02:56:50.126Z,42.20
2022-11-16T02:59:22.695Z,42.26
2022-11-16T03:01:56.999Z,42.22
2022-11-16T03:04:28.242Z,41.75
2022-11-16T03:06:57.817Z,41.95
2022-11-16T03:09:30.764Z,42.00
2022-11-16T03:12:02.959Z,42.02
2022-11-16T03:14:38.685Z,41.86
2022-11-16T03:17:10.837Z,42.15
2022-11-16T03:19:44.214Z,41.81
2022-11-16T03:22:14.096Z,41.97
2022-11-16T03:24:41.292Z,41.82
2022-11-16T03:27:18.511Z,41.75
2022-11-16T03:29:54.367Z,42.01
2022-11-16T03:32:29.872Z,41.81
2022-11-16T03:35:00.591Z,41.81
2022-11-16T03:37:30.097Z,41.74
2022-11-16T03:40:01.107Z,41.89
2022-11-16T03:42:31.807Z,41.92
2022-11-16T03:44:59.199Z,41.91
2022-11-16T03:47:27.502Z,41.73
2022-11-16T03:49:54.425Z,41.46
2022-11-16T03:52:23.730Z,41.58
2022-11-16T03:54:51.093Z,41.57
2022-11-16T03:57:18.686Z,41.65
2022-11-16T03:59:51.425Z,41.71
2022-11-16T04:02:18.613Z,41.53
2022-11-16T04:05:05.952Z,41.55
2022-11-16T04:07:51.282Z,41.77
2022-11-16T04:10:36.957Z,41.74
2022-11-16T04:13:22.871Z,41.44
2022-11-16T04:16:08.755Z,41.52
2022-11-16T04:18:54.510Z,41.74
2022-11-16T04:21:44.451Z,41.71
2022-11-16T04:24:14.674Z,41.49
2022-11-16T04:27:03.966Z,41.58
2022-11-16T04:29:32.016Z,41.32
2022-11-16T04:32:17.402Z,41.42
2022-11-16T04:35:02.494Z,41.39
2022-11-16T04:37:49.048Z,41.59
2022-11-16T04:40:22.956Z,41.43
2022-11-16T04:42:53.314Z,41.35
2022-11-16T04:45:39.644Z,41.60
2022-11-16T04:48:08.202Z,41.39
2022-11-16T04:50:36.711Z,41.28
2022-11-16T04:53:06.056Z,41.32
2022-11-16T04:55:39.806Z,41.39
2022-11-16T04:58:07.769Z,41.49
2022-11-16T05:00:34.620Z,41.22
2022-11-16T05:03:03.463Z,41.08
2022-11-16T05:05:30.388Z,41.01
2022-11-16T05:07:58.934Z,41.06
2022-11-16T05:10:30.488Z,41.23
2022-11-16T05:12:57.841Z,40.94
2022-11-16T05:15:25.465Z,41.12
2022-11-16T05:17:55.281Z,41.00
2022-11-16T05:20:43.102Z,41.00
2022-11-16T05:23:30.006Z,41.08
2022-11-16T05:26:05.732Z,41.21
2022-11-16T05:28:33.040Z,41.26
2022-11-16T05:31:02.260Z,41.08
2022-11-16T05:33:31.456Z,40.58
2022-11-16T05:36:00.017Z,41.32
2022-11-16T05:38:26.875Z,40.97
2022-11-16T05:40:57.119Z,40.90
2022-11-16T05:43:34.302Z,40.87
2022-11-16T05:46:10.034Z,40.67
2022-11-16T05:48:37.926Z,41.08
2022-11-16T05:51:06.323Z,40.96
2022-11-16T05:53:34.614Z,40.86
2022-11-16T05:56:01.710Z,40.72
2022-11-16T05:58:32.308Z,40.97
2022-11-16T06:00:59.946Z,40.62
2022-11-16T06:03:28.483Z,40.68
2022-11-16T06:05:55.991Z,40.59
2022-11-16T06:08:25.210Z,40.87
2022-11-16T06:10:53.625Z,40.35
2022-11-16T06:13:20.634Z,40.46
2022-11-16T06:15:50.777Z,40.66
2022-11-16T06:18:19.189Z,40.46
2022-11-16T06:20:47.715Z,40.23
2022-11-16T06:23:14.622Z,40.19
2022-11-16T06:25:41.508Z,40.38
2022-11-16T06:28:09.278Z,40.39
2022-11-16T06:30:38.323Z,40.17
2022-11-16T06:33:07.502Z,39.95
2022-11-16T06:35:34.350Z,40.10
2022-11-16T06:38:02.814Z,40.08
2022-11-16T06:40:29.725Z,40.18
2022-11-16T06:42:57.327Z,40.05
2022-11-16T06:45:26.058Z,40.22
2022-11-16T06:47:55.846Z,40.01
2022-11-16T06:50:24.653Z,39.67
2022-11-16T06:52:52.194Z,40.18
2022-11-16T06:55:19.779Z,39.73
2022-11-16T06:57:47.841Z,39.77
2022-11-16T07:00:16.570Z,39.75
2022-11-16T07:02:43.784Z,39.64
2022-11-16T07:05:14.215Z,39.99
2022-11-16T07:07:43.443Z,39.75
2022-11-16T07:10:10.639Z,39.63
2022-11-16T07:12:37.456Z,39.89
2022-11-16T07:15:06.486Z,39.74
2022-11-16T07:17:35.890Z,39.74
2022-11-16T07:20:03.513Z,39.65
2022-11-16T07:22:30.357Z,39.62
2022-11-16T07:24:59.587Z,39.61
2022-11-16T07:27:27.989Z,39.61
2022-11-16T07:29:55.196Z,39.73
2022-11-16T07:32:43.085Z,39.69
2022-11-16T07:35:32.512Z,39.80
2022-11-16T07:38:01.173Z,39.60
2022-11-16T07:40:29.440Z,39.60
2022-11-16T07:42:57.691Z,39.85
2022-11-16T07:45:43.007Z,39.59
2022-11-16T07:48:10.817Z,40.02
2022-11-16T07:51:00.449Z,40.10
2022-11-16T07:53:29.659Z,39.96
2022-11-16T07:55:58.196Z,39.98
2022-11-16T07:58:28.079Z,39.92
2022-11-16T08:01:04.883Z,40.03
2022-11-16T08:03:33.310Z,39.82
2022-11-16T08:06:01.187Z,40.11
2022-11-16T08:08:28.731Z,40.02
2022-11-16T08:11:00.706Z,39.88
2022-11-16T08:13:28.016Z,40.31
2022-11-16T08:15:54.880Z,40.25
2022-11-16T08:18:22.352Z,40.25
2022-11-16T08:20:49.190Z,40.18
2022-11-16T08:23:16.448Z,39.64
2022-11-16T08:25:43.213Z,39.73
2022-11-16T08:28:11.651Z,39.83
2022-11-16T08:30:38.939Z,40.02
2022-11-16T08:33:08.048Z,39.90
2022-11-16T08:35:35.008Z,40.00
2022-11-16T08:38:02.682Z,40.08
2022-11-16T08:40:29.714Z,40.05
2022-11-16T08:42:57.171Z,39.60
2022-11-16T08:45:25.524Z,40.16
2022-11-16T08:48:03.192Z,40.26
2022-11-16T08:50:44.210Z,40.05
2022-11-16T08:53:19.028Z,40.31
2022-11-16T08:55:45.873Z,39.82
2022-11-16T08:58:12.787Z,40.11
2022-11-16T09:00:41.750Z,40.00
2022-11-16T09:03:08.533Z,40.10
2022-11-16T09:05:35.333Z,40.06
2022-11-16T09:08:02.189Z,40.31
2022-11-16T09:10:29.084Z,39.73
2022-11-16T09:12:55.888Z,40.23
2022-11-16T09:15:22.799Z,40.06
2022-11-16T09:17:54.837Z,39.91
2022-11-16T09:20:21.761Z,39.98
2022-11-16T09:22:48.617Z,39.96
2022-11-16T09:25:15.871Z,39.84
2022-11-16T09:27:43.007Z,39.95
2022-11-16T09:30:11.746Z,39.85
2022-11-16T09:32:38.660Z,40.09
2022-11-16T09:35:07.656Z,40.01
2022-11-16T09:37:34.473Z,39.95
2022-11-16T09:40:01.251Z,40.15
2022-11-16T09:42:47.477Z,40.03
2022-11-16T09:45:20.508Z,40.18
2022-11-16T09:47:50.028Z,40.28
2022-11-16T09:50:32.182Z,40.14
2022-11-16T09:53:13.557Z,40.48
2022-11-16T09:55:47.473Z,40.49
2022-11-16T09:58:19.907Z,40.15
2022-11-16T10:00:54.795Z,40.43
2022-11-16T10:03:21.793Z,40.28
2022-11-16T10:05:59.321Z,40.19
2022-11-16T10:08:39.044Z,40.29
2022-11-16T10:11:23.163Z,40.46
2022-11-16T10:14:03.819Z,40.64
2022-11-16T10:16:37.716Z,40.53
2022-11-16T10:19:18.091Z,40.53
2022-11-16T10:21:53.273Z,40.56
2022-11-16T10:24:35.867Z,40.74
2022-11-16T10:27:22.494Z,40.40
2022-11-16T10:29:59.546Z,40.47
2022-11-16T10:32:29.573Z,40.52
2022-11-16T10:35:01.739Z,40.41
2022-11-16T10:37:36.568Z,40.68
2022-11-16T10:40:17.239Z,40.61
2022-11-16T10:42:46.861Z,40.67
2022-11-16T10:45:18.502Z,40.88
2022-11-16T10:47:52.116Z,40.43
2022-11-16T10:50:39.396Z,40.56
2022-11-16T10:53:12.401Z,40.96
2022-11-16T10:55:39.251Z,40.73
2022-11-16T10:58:06.656Z,40.71
2022-11-16T11:00:41.086Z,40.91
2022-11-16T11:03:10.739Z,40.56
2022-11-16T11:05:48.158Z,40.67
2022-11-16T11:08:26.610Z,40.46
2022-11-16T11:11:03.242Z,40.88
2022-11-16T11:13:30.106Z,40.28
2022-11-16T11:16:15.731Z,40.36
2022-11-16T11:18:42.909Z,40.81
2022-11-16T11:21:17.201Z,40.85
2022-11-16T11:23:47.943Z,40.90
2022-11-16T11:26:35.823Z,40.65
2022-11-16T11:29:09.673Z,40.99
2022-11-16T11:31:42.832Z,41.04
2022-11-16T11:34:17.339Z,40.81
2022-11-16T11:36:48.390Z,40.68
2022-11-16T11:39:36.487Z,40.69
2022-11-16T11:42:21.237Z,41.10
2022-11-16T11:44:54.843Z,40.50
2022-11-16T11:47:57.413Z,41.09
2022-11-16T11:50:35.799Z,41.07
2022-11-16T11:53:07.474Z,40.69
2022-11-16T11:55:35.740Z,40.82
2022-11-16T11:58:04.451Z,41.21
2022-11-16T12:00:41.978Z,41.05
2022-11-16T12:03:56.415Z,40.72
2022-11-16T12:06:31.442Z,41.02
2022-11-16T12:09:21.234Z,40.60
2022-11-16T12:12:01.948Z,40.97
2022-11-16T12:14:46.051Z,40.96
2022-11-16T12:17:21.326Z,41.07
2022-11-16T12:20:03.213Z,40.97
2022-11-16T12:22:47.588Z,40.88
2022-11-16T12:25:24.917Z,41.13
2022-11-16T12:28:11.572Z,40.88
2022-11-16T12:30:51.787Z,40.91
2022-11-16T12:33:27.207Z,41.15
2022-11-16T12:36:02.451Z,40.95
2022-11-16T12:38:59.921Z,41.19
2022-11-16T12:41:53.601Z,41.17
2022-11-16T12:44:30.049Z,41.52
2022-11-16T12:47:08.528Z,41.60
2022-11-16T12:49:56.201Z,41.67
2022-11-16T12:52:43.093Z,41.32
2022-11-16T12:55:26.752Z,41.33
2022-11-16T12:58:07.592Z,41.39
2022-11-16T13:00:48.524Z,41.05
2022-11-16T13:03:20.551Z,41.24
2022-11-16T13:05:57.890Z,41.09
2022-11-16T13:08:38.028Z,41.14
2022-11-16T13:11:11.919Z,40.82
2022-11-16T13:13:40.754Z,41.12
2022-11-16T13:16:10.804Z,41.21
2022-11-16T13:18:41.645Z,41.11
2022-11-16T13:21:20.669Z,41.42
2022-11-16T13:24:00.951Z,41.00
2022-11-16T13:26:33.917Z,41.15
2022-11-16T13:29:09.361Z,41.17
2022-11-16T13:31:43.874Z,41.74
2022-11-16T13:34:15.887Z,41.49
2022-11-16T13:36:47.631Z,41.34
2022-11-16T13:39:21.992Z,41.69
2022-11-16T13:41:52.054Z,41.29
2022-11-16T13:44:28.944Z,41.55
2022-11-16T13:47:04.179Z,41.40
2022-11-16T13:49:35.329Z,42.11
2022-11-16T13:52:21.925Z,41.82
2022-11-16T13:54:53.131Z,41.35
2022-11-16T13:57:24.222Z,41.51
2022-11-16T14:00:09.163Z,41.23
2022-11-16T14:02:38.910Z,41.38
2022-11-16T14:05:14.799Z,41.48
2022-11-16T14:07:47.374Z,41.00
2022-11-16T14:11:02.147Z,41.26
2022-11-16T14:13:39.862Z,41.22
2022-11-16T14:16:43.784Z,41.02
2022-11-16T14:19:51.934Z,41.04
2022-11-16T14:22:35.462Z,40.95
2022-11-16T14:25:09.675Z,40.80
2022-11-16T14:27:43.117Z,40.64
2022-11-16T14:30:17.641Z,40.84
2022-11-16T14:32:47.174Z,40.93
2022-11-16T14:35:29.963Z,41.09
2022-11-16T14:38:00.957Z,40.78
2022-11-16T14:40:27.915Z,40.91
2022-11-16T14:45:49.131Z,40.46
2022-11-16T14:48:18.980Z,40.76
2022-11-16T14:50:58.836Z,40.81
2022-11-16T14:53:28.440Z,40.31
2022-11-16T14:56:07.134Z,40.34
2022-11-16T14:58:33.907Z,40.49
2022-11-16T15:01:03.556Z,40.24
2022-11-16T15:03:34.456Z,40.63
2022-11-16T15:06:04.169Z,40.45
2022-11-16T15:08:35.495Z,40.27
2022-11-16T15:11:02.764Z,40.13
2022-11-16T15:13:29.593Z,39.97
2022-11-16T15:16:10.673Z,39.85
2022-11-16T15:18:37.452Z,40.30
2022-11-16T15:21:04.283Z,40.27
2022-11-16T15:23:32.767Z,40.22
2022-11-16T15:26:02.284Z,40.02
2022-11-16T15:28:31.836Z,40.05
2022-11-16T15:31:01.715Z,39.78
2022-11-16T15:33:31.549Z,40.18
2022-11-16T15:35:59.005Z,39.88
2022-11-16T15:38:28.191Z,40.01
2022-11-16T15:40:58.642Z,40.21
2022-11-16T15:43:28.754Z,39.85
2022-11-16T15:45:56.352Z,40.05
2022-11-16T15:48:25.364Z,40.11
2022-11-16T15:51:02.983Z,39.77
2022-11-16T15:53:35.007Z,39.84
2022-11-16T15:56:05.920Z,39.73
2022-11-16T15:58:37.608Z,39.95
2022-11-16T16:01:04.996Z,39.72
2022-11-16T16:03:34.878Z,39.92
2022-11-16T16:06:03.088Z,39.55
2022-11-16T16:08:32.666Z,40.04
2022-11-16T16:11:01.838Z,39.39
2022-11-16T16:13:32.577Z,40.00
2022-11-16T16:16:36.249Z,39.74
2022-11-16T16:19:09.771Z,39.83
2022-11-16T16:21:42.642Z,39.76
2022-11-16T16:24:31.020Z,39.88
2022-11-16T16:26:59.246Z,39.91
2022-11-16T16:29:27.022Z,39.60
2022-11-16T16:31:54.039Z,39.88
2022-11-16T16:34:21.139Z,39.35
2022-11-16T16:36:47.970Z,39.68
2022-11-16T16:39:14.721Z,39.77
2022-11-16T16:41:42.044Z,39.61
2022-11-16T16:44:15.008Z,39.38
2022-11-16T16:46:42.183Z,39.45
2022-11-16T16:49:09.019Z,39.38
2022-11-16T16:51:35.885Z,39.40
2022-11-16T16:54:02.670Z,39.31
2022-11-16T16:56:29.557Z,39.57
2022-11-16T16:58:56.423Z,39.13
2022-11-16T17:01:26.558Z,39.35
2022-11-16T17:03:53.482Z,39.47
2022-11-16T17:06:20.453Z,39.34
2022-11-16T17:08:47.343Z,38.96
2022-11-16T17:11:17.937Z,38.85
2022-11-16T17:13:44.809Z,39.05
2022-11-16T17:16:13.120Z,39.19
2022-11-16T17:18:41.310Z,39.01
2022-11-16T17:21:09.357Z,39.11
2022-11-16T17:23:37.388Z,38.98
2022-11-16T17:26:05.605Z,38.98
2022-11-16T17:28:32.874Z,39.01
2022-11-16T17:31:03.206Z,39.35
2022-11-16T17:33:33.635Z,39.10
2022-11-16T17:36:03.822Z,38.73
2022-11-16T17:38:31.223Z,38.83
2022-11-16T17:41:04.029Z,38.67
2022-11-16T17:43:31.033Z,38.76
2022-11-16T17:46:03.276Z,38.39
2022-11-16T17:48:30.152Z,38.65
2022-11-16T17:50:57.012Z,38.63
2022-11-16T17:53:29.799Z,38.66
2022-11-16T17:55:59.468Z,38.46
2022-11-16T17:58:27.346Z,38.33
2022-11-16T18:00:54.412Z,38.15
2022-11-16T18:03:24.025Z,38.60
2022-11-16T18:05:50.998Z,38.45
2022-11-16T18:08:17.864Z,38.40
2022-11-16T18:10:46.082Z,38.08
2022-11-16T18:13:12.893Z,38.28
2022-11-16T18:15:42.493Z,38.51
2022-11-16T18:18:09.455Z,38.28
2022-11-16T18:20:37.633Z,38.30
2022-11-16T18:23:04.711Z,37.95
2022-11-16T18:25:34.688Z,38.06
2022-11-16T18:28:02.885Z,38.16
2022-11-16T18:30:29.691Z,38.27
2022-11-16T18:32:56.494Z,38.62
2022-11-16T18:35:23.307Z,38.73
2022-11-16T18:37:50.157Z,38.53
2022-11-16T18:40:18.051Z,38.62
2022-11-16T18:42:45.049Z,38.15
2022-11-16T18:45:13.875Z,37.90
2022-11-16T18:47:40.723Z,38.27
2022-11-16T18:50:16.522Z,38.32
2022-11-16T18:52:46.079Z,38.11
2022-11-16T18:55:12.867Z,38.03
2022-11-16T18:57:39.705Z,38.35
2022-11-16T19:00:09.963Z,37.96
2022-11-16T19:02:38.824Z,38.13
2022-11-16T19:05:07.547Z,37.85
2022-11-16T19:07:34.438Z,38.02
2022-11-16T19:10:01.330Z,38.18
2022-11-16T19:12:28.451Z,38.34
2022-11-16T19:14:55.237Z,38.09
2022-11-16T19:17:24.517Z,37.93
2022-11-16T19:19:52.672Z,38.34
2022-11-16T19:22:20.510Z,38.05
2022-11-16T19:24:47.365Z,37.76
2022-11-16T19:27:14.172Z,38.13
2022-11-16T19:29:40.936Z,38.09
2022-11-16T19:32:07.771Z,38.33
2022-11-16T19:34:34.611Z,37.75
2022-11-16T19:37:02.837Z,38.10
2022-11-16T19:39:29.645Z,38.17
2022-11-16T19:41:56.462Z,37.96
2022-11-16T19:44:23.354Z,38.35
2022-11-16T19:46:50.178Z,38.42
2022-11-16T19:49:20.131Z,37.98
2022-11-16T19:51:47.885Z,38.16
2022-11-16T19:54:16.043Z,38.01
2022-11-16T19:56:43.234Z,38.07
2022-11-16T19:59:10.358Z,38.34
2022-11-16T20:01:37.513Z,38.22
2022-11-16T20:04:05.516Z,38.21
2022-11-16T20:06:34.935Z,38.33
2022-11-16T20:09:08.755Z,38.46
2022-11-16T20:11:39.138Z,38.23
2022-11-16T20:14:08.068Z,38.29
2022-11-16T20:16:39.069Z,38.16
2022-11-16T20:19:06.574Z,38.18
2022-11-16T20:21:34.990Z,38.34
2022-11-16T20:24:06.711Z,38.19
2022-11-16T20:26:35.286Z,38.32
2022-11-16T20:29:04.134Z,38.16
2022-11-16T20:31:32.821Z,38.17
2022-11-16T20:34:01.655Z,38.34
2022-11-16T20:36:30.079Z,38.17
2022-11-16T20:38:57.870Z,38.22
2022-11-16T20:41:26.358Z,38.13
2022-11-16T20:43:54.401Z,38.51
2022-11-16T20:46:24.896Z,38.44
2022-11-16T20:48:51.905Z,38.14
2022-11-16T20:51:20.303Z,38.20
2022-11-16T20:53:48.619Z,38.46
2022-11-16T20:56:17.739Z,38.34
2022-11-16T20:58:45.359Z,38.18
2022-11-16T21:01:14.182Z,38.64
2022-11-16T21:03:44.436Z,38.31
2022-11-16T21:06:11.978Z,38.31
2022-11-16T21:08:40.039Z,38.47
2022-11-16T21:11:11.054Z,38.51
2022-11-16T21:13:56.541Z,38.52
2022-11-16T21:16:23.404Z,38.43
2022-11-16T21:18:51.550Z,38.73
2022-11-16T21:21:18.470Z,38.21
2022-11-16T21:23:51.353Z,38.63
2022-11-16T21:26:19.971Z,38.57
2022-11-16T21:28:47.067Z,38.57
2022-11-16T21:31:15.629Z,38.36
2022-11-16T21:33:43.291Z,38.41
2022-11-16T21:36:13.347Z,38.58
2022-11-16T21:38:40.437Z,38.33
2022-11-16T21:41:07.857Z,38.39
2022-11-16T21:43:36.447Z,38.44
2022-11-16T21:46:05.535Z,38.52
2022-11-16T21:48:33.231Z,38.33
2022-11-16T21:51:01.021Z,38.77
2022-11-16T21:53:29.299Z,38.62
2022-11-16T21:55:56.172Z,38.48
2022-11-16T21:58:23.074Z,38.86
2022-11-16T22:00:50.170Z,38.51
2022-11-16T22:03:16.928Z,38.71
2022-11-16T22:06:02.695Z,38.34
2022-11-16T22:08:32.328Z,38.55
2022-11-16T22:10:59.127Z,38.46
2022-11-16T22:13:25.943Z,38.51
2022-11-16T22:15:52.797Z,38.60
2022-11-16T22:18:19.597Z,38.42
2022-11-16T22:20:47.894Z,38.71
2022-11-16T22:23:18.656Z,38.46
2022-11-16T22:25:50.802Z,38.53
2022-11-16T22:28:21.486Z,38.56
2022-11-16T22:30:51.639Z,38.72
2022-11-16T22:33:19.284Z,38.41
2022-11-16T22:35:47.066Z,38.48
2022-11-16T22:38:13.839Z,38.85
2022-11-16T22:40:40.606Z,38.27
2022-11-16T22:43:08.769Z,38.46
2022-11-16T22:45:35.510Z,38.40
2022-11-16T22:48:02.335Z,38.74
2022-11-16T22:50:29.125Z,38.54
2022-11-16T22:52:58.579Z,38.36
2022-11-16T22:55:25.402Z,38.44
2022-11-16T22:57:52.274Z,38.79
2022-11-16T23:00:21.111Z,38.37
2022-11-16T23:02:47.974Z,38.49
2022-11-16T23:05:14.938Z,38.37
2022-11-16T23:07:43.890Z,38.78
2022-11-16T23:10:10.879Z,38.63
2022-11-16T23:12:56.134Z,38.55
2022-11-16T23:15:48.906Z,38.43
2022-11-16T23:18:15.833Z,38.77
2022-11-16T23:21:01.032Z,38.46
2022-11-16T23:23:46.344Z,38.61
2022-11-16T23:26:38.486Z,38.79
2022-11-16T23:29:07.985Z,38.71
2022-11-16T23:31:36.372Z,38.66
2022-11-16T23:34:03.616Z,38.39
2022-11-16T23:36:30.490Z,38.39
2022-11-16T23:38:57.317Z,38.36
2022-11-16T23:41:42.631Z,38.47
2022-11-16T23:44:09.481Z,38.61
2022-11-16T23:46:37.711Z,38.32
2022-11-16T23:49:04.610Z,38.59
2022-11-16T23:51:31.418Z,38.28
2022-11-16T23:53:58.357Z,38.54
2022-11-16T23:56:25.220Z,38.19
2022-11-16T23:58:57.304Z,38.59
